createdAt,value
2018-02-13T00:01:50.181Z,95100.19
2018-02-13T00:04:18.101Z,95090.66
2018-02-13T00:06:46.046Z,95091.41
2018-02-13T00:09:14.042Z,95098.58
2018-02-13T00:11:42.021Z,95089.52
2018-02-13T00:14:09.930Z,95088.53
2018-02-13T00:16:37.859Z,95096.38
2018-02-13T00:19:05.838Z,95095.33
2018-02-13T00:21:34.032Z,95097.78
2018-02-13T00:24:02.046Z,95098.48
2018-02-13T00:26:30.019Z,95102.11
2018-02-13T00:28:57.930Z,95093.46
2018-02-13T00:31:25.958Z,95092.69
2018-02-13T00:33:53.887Z,95095.01
2018-02-13T00:36:21.786Z,95093.91
2018-02-13T00:38:49.753Z,95098.81
2018-02-13T00:41:17.726Z,95091.26
2018-02-13T00:43:45.703Z,95098.73
2018-02-13T00:46:13.648Z,95109.27
2018-02-13T00:48:41.662Z,95109.67
2018-02-13T00:51:10.071Z,95105.78
2018-02-13T00:53:38.046Z,95109.01
2018-02-13T00:56:06.021Z,95113.78
2018-02-13T00:58:33.994Z,95109.50
2018-02-13T01:01:02.026Z,95108.84
2018-02-13T01:03:30.009Z,95115.51
2018-02-13T01:05:58.006Z,95109.21
2018-02-13T01:08:25.953Z,95113.34
2018-02-13T01:10:53.991Z,95109.09
2018-02-13T01:13:21.885Z,95113.36
2018-02-13T01:15:49.951Z,95100.48
2018-02-13T01:18:17.866Z,95101.75
2018-02-13T01:20:45.927Z,95108.19
2018-02-13T01:23:13.962Z,95107.95
2018-02-13T01:25:42.071Z,95111.07
2018-02-13T01:28:10.026Z,95113.33
2018-02-13T01:30:37.993Z,95112.95
2018-02-13T01:33:05.970Z,95119.23
2018-02-13T01:35:33.806Z,95121.55
2018-02-13T01:38:01.771Z,95115.94
2018-02-13T01:40:29.719Z,95115.31
2018-02-13T01:42:57.770Z,95129.33
2018-02-13T01:45:25.754Z,95121.59
2018-02-13T01:47:53.766Z,95114.95
2018-02-13T01:50:26.702Z,95112.02
2018-02-13T01:52:55.089Z,95030.78
2018-02-13T01:55:23.071Z,95120.88
2018-02-13T01:57:51.030Z,95115.74
2018-02-13T02:00:18.922Z,95121.17
2018-02-13T02:02:46.801Z,95117.95
2018-02-13T02:05:14.742Z,95120.08
2018-02-13T02:07:42.694Z,95122.76
2018-02-13T02:10:10.610Z,95119.09
2018-02-13T02:12:38.602Z,95130.73
2018-02-13T02:15:06.518Z,95122.73
2018-02-13T02:17:34.503Z,95121.09
2018-02-13T02:20:02.497Z,95108.45
2018-02-13T02:22:30.511Z,95104.42
2018-02-13T02:24:58.517Z,95110.73
2018-02-13T02:27:26.705Z,95109.13
2018-02-13T02:29:54.658Z,95101.56
2018-02-13T02:32:22.635Z,95104.28
2018-02-13T02:34:50.613Z,95103.50
2018-02-13T02:37:18.593Z,95101.43
2018-02-13T02:39:46.584Z,95098.77
2018-02-13T02:42:14.565Z,95101.45
2018-02-13T02:44:42.487Z,95107.31
2018-02-13T02:47:10.457Z,95110.35
2018-02-13T02:49:38.419Z,95114.48
2018-02-13T02:52:06.367Z,95114.66
2018-02-13T02:54:34.818Z,95122.92
2018-02-13T02:57:02.832Z,95134.35
2018-02-13T02:59:30.786Z,95145.36
2018-02-13T03:01:58.770Z,95141.05
2018-02-13T03:04:26.651Z,95135.97
2018-02-13T03:06:54.599Z,95132.16
2018-02-13T03:09:22.667Z,95139.50
2018-02-13T03:11:50.590Z,95132.41
2018-02-13T03:14:18.686Z,95135.75
2018-02-13T03:16:46.735Z,95145.09
2018-02-13T03:19:14.562Z,95149.52
2018-02-13T03:21:42.545Z,95153.70
2018-02-13T03:24:10.493Z,95157.50
2018-02-13T03:26:38.454Z,95155.45
2018-02-13T03:29:06.431Z,95155.11
2018-02-13T03:31:34.386Z,95160.21
2018-02-13T03:34:02.366Z,95157.56
2018-02-13T03:36:30.293Z,95158.81
2018-02-13T03:38:58.265Z,95169.57
2018-02-13T03:41:26.205Z,95176.70
2018-02-13T03:43:54.206Z,95172.45
2018-02-13T03:46:22.221Z,95179.18
2018-02-13T03:48:50.167Z,95178.94
2018-02-13T03:51:18.179Z,95188.30
2018-02-13T03:53:46.156Z,95194.28
2018-02-13T03:56:14.447Z,95193.84
2018-02-13T03:58:42.409Z,95179.84
2018-02-13T04:01:10.378Z,95175.60
2018-02-13T04:03:38.327Z,95175.09
2018-02-13T04:06:06.299Z,95176.81
2018-02-13T04:08:34.298Z,95184.20
2018-02-13T04:11:02.329Z,95180.33
2018-02-13T04:13:30.337Z,95180.38
2018-02-13T04:15:58.354Z,95171.28
2018-02-13T04:18:26.366Z,95179.72
2018-02-13T04:20:54.348Z,95177.13
2018-02-13T04:23:22.314Z,95175.45
2018-02-13T04:25:50.290Z,95177.19
2018-02-13T04:28:18.319Z,95173.98
2018-02-13T04:30:46.341Z,95164.51
2018-02-13T04:33:14.330Z,95170.44
2018-02-13T04:35:42.310Z,95160.54
2018-02-13T04:38:10.357Z,95142.14
2018-02-13T04:40:38.313Z,95154.53
2018-02-13T04:43:06.263Z,95159.63
2018-02-13T04:45:34.302Z,95159.95
2018-02-13T04:48:02.305Z,95161.70
2018-02-13T04:50:31.385Z,95164.23
2018-02-13T04:52:59.369Z,95157.77
2018-02-13T04:55:27.353Z,95152.52
2018-02-13T04:57:55.593Z,95159.63
2018-02-13T05:00:23.574Z,95169.61
2018-02-13T05:02:51.543Z,95165.79
2018-02-13T05:05:19.476Z,95175.64
2018-02-13T05:07:47.392Z,95167.53
2018-02-13T05:10:15.350Z,95171.47
2018-02-13T05:12:43.301Z,95183.57
2018-02-13T05:15:11.291Z,95184.57
2018-02-13T05:17:39.269Z,95172.50
2018-02-13T05:20:07.221Z,95172.70
2018-02-13T05:22:35.210Z,95173.58
2018-02-13T05:25:03.198Z,95171.68
2018-02-13T05:27:31.177Z,95173.59
2018-02-13T05:29:59.151Z,95172.62
2018-02-13T05:32:27.200Z,95176.25
2018-02-13T05:34:55.173Z,95179.77
2018-02-13T05:37:23.218Z,95187.55
2018-02-13T05:39:51.179Z,95186.41
2018-02-13T05:42:19.105Z,95181.66
2018-02-13T05:44:47.138Z,95190.54
2018-02-13T05:47:15.162Z,95201.19
2018-02-13T05:49:43.094Z,95201.16
2018-02-13T05:52:11.139Z,95210.40
2018-02-13T05:54:39.255Z,95211.49
2018-02-13T05:57:07.173Z,95218.60
2018-02-13T05:59:35.910Z,95201.39
2018-02-13T06:02:03.879Z,95217.70
2018-02-13T06:04:31.823Z,95219.31
2018-02-13T06:06:59.819Z,95217.84
2018-02-13T06:09:27.821Z,95234.27
2018-02-13T06:11:55.750Z,95220.95
2018-02-13T06:14:23.728Z,95225.77
2018-02-13T06:16:51.759Z,95226.59
2018-02-13T06:19:19.679Z,95219.55
2018-02-13T06:21:47.646Z,95223.97
2018-02-13T06:24:15.609Z,95219.64
2018-02-13T06:26:43.559Z,95219.24
2018-02-13T06:29:11.736Z,95219.97
2018-02-13T06:31:40.031Z,95220.72
2018-02-13T06:34:08.510Z,95214.74
2018-02-13T06:36:36.989Z,95217.05
2018-02-13T06:39:05.964Z,95217.67
2018-02-13T06:41:34.262Z,95215.19
2018-02-13T06:44:02.163Z,95216.98
2018-02-13T06:46:30.810Z,95217.42
2018-02-13T06:48:58.690Z,95220.88
2018-02-13T06:51:26.615Z,95225.25
2018-02-13T06:53:54.664Z,95210.38
2018-02-13T06:56:22.657Z,95210.27
2018-02-13T06:58:50.639Z,95208.23
2018-02-13T07:01:19.134Z,95179.56
2018-02-13T07:03:47.131Z,95208.95
2018-02-13T07:06:15.047Z,95208.45
2018-02-13T07:08:42.987Z,95210.75
2018-02-13T07:11:10.957Z,95214.23
2018-02-13T07:13:38.906Z,95228.54
2018-02-13T07:16:06.886Z,95228.18
2018-02-13T07:18:34.843Z,95236.25
2018-02-13T07:21:02.826Z,95244.97
2018-02-13T07:23:30.838Z,95236.95
2018-02-13T07:25:58.794Z,95241.00
2018-02-13T07:28:26.898Z,95255.09
2018-02-13T07:30:54.766Z,95248.17
2018-02-13T07:33:22.742Z,95241.91
2018-02-13T07:35:50.845Z,95246.92
2018-02-13T07:38:18.847Z,95251.36
2018-02-13T07:40:46.764Z,95248.48
2018-02-13T07:43:14.751Z,95257.42
2018-02-13T07:45:42.669Z,95251.65
2018-02-13T07:48:10.666Z,95257.17
2018-02-13T07:50:38.646Z,95253.05
2018-02-13T07:53:06.651Z,95260.91
2018-02-13T07:55:34.610Z,95250.86
2018-02-13T07:58:02.561Z,95251.50
2018-02-13T08:00:30.602Z,95245.58
2018-02-13T08:02:58.867Z,95244.69
2018-02-13T08:05:26.842Z,95241.69
2018-02-13T08:07:54.820Z,95254.66
2018-02-13T08:10:22.925Z,95252.59
2018-02-13T08:12:50.965Z,95255.78
2018-02-13T08:15:19.318Z,95263.02
2018-02-13T08:17:47.259Z,95256.65
2018-02-13T08:20:15.205Z,95255.63
2018-02-13T08:22:43.169Z,95263.36
2018-02-13T08:25:11.126Z,95266.53
2018-02-13T08:27:39.077Z,95272.66
2018-02-13T08:30:07.082Z,95279.31
2018-02-13T08:32:35.053Z,95268.55
2018-02-13T08:35:02.985Z,95263.94
2018-02-13T08:37:31.112Z,95266.20
2018-02-13T08:39:59.095Z,95272.22
2018-02-13T08:42:27.078Z,95265.00
2018-02-13T08:44:55.113Z,95257.33
2018-02-13T08:47:23.071Z,95252.32
2018-02-13T08:49:51.150Z,95256.18
2018-02-13T08:52:19.130Z,95249.28
2018-02-13T08:54:47.137Z,95236.86
2018-02-13T08:57:15.117Z,95236.41
2018-02-13T08:59:43.156Z,95234.82
2018-02-13T09:02:11.181Z,95234.03
2018-02-13T09:04:39.426Z,95234.99
2018-02-13T09:07:07.457Z,95240.58
2018-02-13T09:09:35.541Z,95246.83
2018-02-13T09:12:03.533Z,95243.55
2018-02-13T09:14:31.543Z,95239.60
2018-02-13T09:16:59.511Z,95239.46
2018-02-13T09:19:27.522Z,95243.70
2018-02-13T09:21:55.504Z,95245.12
2018-02-13T09:24:23.417Z,95241.23
2018-02-13T09:26:51.407Z,95244.03
2018-02-13T09:29:19.422Z,95243.40
2018-02-13T09:31:47.409Z,95236.96
2018-02-13T09:34:15.398Z,95228.39
2018-02-13T09:36:43.389Z,95232.86
2018-02-13T09:39:11.655Z,95228.34
2018-02-13T09:41:39.654Z,95226.29
2018-02-13T09:44:07.614Z,95225.20
2018-02-13T09:46:35.629Z,95213.80
2018-02-13T09:49:03.666Z,95218.12
2018-02-13T09:51:31.656Z,95209.09
2018-02-13T09:53:59.607Z,95204.30
2018-02-13T09:56:27.626Z,95202.99
2018-02-13T09:58:55.654Z,95204.35
2018-02-13T10:01:23.615Z,95202.77
2018-02-13T10:03:51.693Z,95201.53
2018-02-13T10:06:20.050Z,95194.73
2018-02-13T10:08:48.078Z,95196.95
2018-02-13T10:11:16.089Z,95183.61
2018-02-13T10:13:44.057Z,95180.38
2018-02-13T10:16:12.132Z,95171.22
2018-02-13T10:18:40.139Z,95171.68
2018-02-13T10:21:08.227Z,95173.55
2018-02-13T10:23:36.256Z,95165.89
2018-02-13T10:26:04.234Z,95174.97
2018-02-13T10:28:32.253Z,95172.97
2018-02-13T10:31:00.279Z,95167.95
2018-02-13T10:33:28.348Z,95168.91
2018-02-13T10:35:56.278Z,95159.96
2018-02-13T10:38:24.270Z,95164.72
2018-02-13T10:40:52.300Z,95149.09
2018-02-13T10:43:20.254Z,95143.83
2018-02-13T10:45:48.219Z,95149.78
2018-02-13T10:48:16.121Z,95141.94
2018-02-13T10:50:44.098Z,95144.83
2018-02-13T10:53:12.093Z,95146.84
2018-02-13T10:55:40.063Z,95137.85
2018-02-13T10:58:08.042Z,95148.28
2018-02-13T11:00:41.583Z,95137.40
2018-02-13T11:03:09.584Z,95109.82
2018-02-13T11:05:37.594Z,95136.26
2018-02-13T11:08:05.914Z,95138.11
2018-02-13T11:10:33.946Z,95132.02
2018-02-13T11:13:01.956Z,95136.38
2018-02-13T11:15:30.035Z,95128.66
2018-02-13T11:17:58.074Z,95132.16
2018-02-13T11:20:26.114Z,95123.72
2018-02-13T11:22:54.094Z,95113.91
2018-02-13T11:25:22.082Z,95107.30
2018-02-13T11:27:50.069Z,95103.84
2018-02-13T11:30:18.043Z,95098.17
2018-02-13T11:32:46.044Z,95084.13
2018-02-13T11:35:13.962Z,95087.02
2018-02-13T11:37:41.974Z,95086.00
2018-02-13T11:40:09.922Z,95078.02
2018-02-13T11:42:38.061Z,95066.75
2018-02-13T11:45:06.051Z,95070.09
2018-02-13T11:47:34.037Z,95055.91
2018-02-13T11:50:01.999Z,95045.48
2018-02-13T11:52:29.999Z,95051.32
2018-02-13T11:54:57.980Z,95035.12
2018-02-13T11:57:25.907Z,95039.89
2018-02-13T11:59:53.899Z,95035.76
2018-02-13T12:02:21.903Z,95024.34
2018-02-13T12:04:49.927Z,95025.24
2018-02-13T12:07:17.967Z,95029.84
2018-02-13T12:09:46.148Z,95007.38
2018-02-13T12:12:14.238Z,95018.83
2018-02-13T12:14:42.222Z,95016.89
2018-02-13T12:17:10.221Z,95014.73
2018-02-13T12:19:38.144Z,95012.03
2018-02-13T12:22:06.125Z,95015.20
2018-02-13T12:24:34.177Z,95002.73
2018-02-13T12:27:02.041Z,95001.95
2018-02-13T12:29:30.025Z,95006.63
2018-02-13T12:31:58.138Z,94995.45
2018-02-13T12:34:26.175Z,95003.55
2018-02-13T12:36:54.181Z,94997.52
2018-02-13T12:39:22.162Z,95000.55
2018-02-13T12:41:50.190Z,94987.34
2018-02-13T12:44:18.538Z,94979.88
2018-02-13T12:46:46.513Z,94978.96
2018-02-13T12:49:14.600Z,94974.95
2018-02-13T12:51:42.574Z,94975.68
2018-02-13T12:54:10.599Z,94965.86
2018-02-13T12:56:38.609Z,94967.36
2018-02-13T12:59:06.697Z,94961.38
2018-02-13T13:01:34.654Z,94963.30
2018-02-13T13:04:03.635Z,94960.17
2018-02-13T13:06:31.659Z,94956.29
2018-02-13T13:08:59.709Z,94959.59
2018-02-13T13:11:28.125Z,94953.51
2018-02-13T13:13:56.115Z,94953.49
2018-02-13T13:16:24.068Z,94948.20
2018-02-13T13:18:51.958Z,94946.19
2018-02-13T13:21:19.955Z,94947.42
2018-02-13T13:23:47.983Z,94942.73
2018-02-13T13:26:15.984Z,94926.14
2018-02-13T13:28:43.995Z,94931.93
2018-02-13T13:31:12.010Z,94938.83
2018-02-13T13:33:40.003Z,94939.11
2018-02-13T13:36:08.012Z,94927.92
2018-02-13T13:38:35.996Z,94923.92
2018-02-13T13:41:03.991Z,94930.73
2018-02-13T13:43:31.994Z,94929.77
2018-02-13T13:46:00.265Z,94929.61
2018-02-13T13:48:28.687Z,94933.27
2018-02-13T13:50:56.609Z,94930.00
2018-02-13T13:53:24.604Z,94925.27
2018-02-13T13:55:52.602Z,94917.61
2018-02-13T13:58:20.575Z,94917.89
2018-02-13T14:00:48.534Z,94910.86
2018-02-13T14:03:16.551Z,94913.09
2018-02-13T14:05:44.542Z,94907.14
2018-02-13T14:08:12.512Z,94909.92
2018-02-13T14:10:40.477Z,94898.85
2018-02-13T14:13:08.670Z,94899.92
2018-02-13T14:15:36.654Z,94906.98
2018-02-13T14:18:04.657Z,94905.41
2018-02-13T14:20:32.638Z,94905.00
2018-02-13T14:23:00.641Z,94902.80
2018-02-13T14:25:28.608Z,94907.31
2018-02-13T14:27:56.593Z,94906.64
2018-02-13T14:30:24.588Z,94909.25
2018-02-13T14:32:52.617Z,94910.33
2018-02-13T14:35:20.605Z,94902.06
2018-02-13T14:37:48.626Z,94894.22
2018-02-13T14:40:16.610Z,94895.80
2018-02-13T14:42:44.670Z,94898.03
2018-02-13T14:45:12.663Z,94891.15
2018-02-13T14:47:40.613Z,94877.08
2018-02-13T14:50:08.570Z,94893.32
2018-02-13T14:52:36.506Z,94884.09
2018-02-13T14:55:04.449Z,94868.68
2018-02-13T14:57:32.429Z,94886.36
2018-02-13T15:00:00.480Z,94879.99
2018-02-13T15:02:28.466Z,94877.17
2018-02-13T15:04:56.450Z,94882.50
2018-02-13T15:07:24.445Z,94880.64
2018-02-13T15:09:52.426Z,94877.93
2018-02-13T15:12:20.499Z,94876.91
2018-02-13T15:14:48.897Z,94881.31
2018-02-13T15:17:22.051Z,94886.33
2018-02-13T15:19:52.067Z,94885.55
2018-02-13T15:22:20.007Z,94885.47
2018-02-13T15:24:48.016Z,94882.58
2018-02-13T15:27:16.029Z,94883.94
2018-02-13T15:29:44.165Z,94874.83
2018-02-13T15:32:12.194Z,94879.43
2018-02-13T15:34:40.151Z,94874.84
2018-02-13T15:37:08.110Z,94868.18
2018-02-13T15:39:36.255Z,94871.47
2018-02-13T15:42:04.194Z,94874.45
2018-02-13T15:44:32.173Z,94865.22
2018-02-13T15:47:05.065Z,94871.14
2018-02-13T15:49:33.462Z,94841.80
2018-02-13T15:52:01.821Z,94865.64
2018-02-13T15:54:29.794Z,94874.45
2018-02-13T15:56:57.861Z,94869.61
2018-02-13T15:59:25.771Z,94864.11
2018-02-13T16:01:53.768Z,94865.13
2018-02-13T16:04:21.754Z,94867.80
2018-02-13T16:06:49.706Z,94870.78
2018-02-13T16:09:17.705Z,94878.97
2018-02-13T16:11:45.690Z,94872.75
2018-02-13T16:14:13.677Z,94874.30
2018-02-13T16:16:41.936Z,94885.31
2018-02-13T16:19:09.803Z,94877.32
2018-02-13T16:21:37.754Z,94877.48
2018-02-13T16:24:05.738Z,94880.51
2018-02-13T16:26:33.734Z,94873.22
2018-02-13T16:29:01.826Z,94870.14
2018-02-13T16:31:29.710Z,94874.55
2018-02-13T16:33:57.962Z,94868.86
2018-02-13T16:36:25.910Z,94878.87
2018-02-13T16:38:53.937Z,94882.41
2018-02-13T16:41:21.870Z,94883.09
2018-02-13T16:43:49.856Z,94885.27
2018-02-13T16:46:17.883Z,94881.57
2018-02-13T16:48:45.883Z,94880.60
2018-02-13T16:51:13.815Z,94883.72
2018-02-13T16:53:41.801Z,94871.31
2018-02-13T16:56:09.818Z,94864.48
2018-02-13T16:58:37.819Z,94874.66
2018-02-13T17:01:05.832Z,94866.36
2018-02-13T17:03:33.774Z,94867.16
2018-02-13T17:06:01.770Z,94862.86
2018-02-13T17:08:29.750Z,94859.59
2018-02-13T17:10:57.781Z,94847.16
2018-02-13T17:13:25.720Z,94850.23
2018-02-13T17:15:53.765Z,94850.68
2018-02-13T17:18:22.233Z,94843.19
2018-02-13T17:20:50.187Z,94837.59
2018-02-13T17:23:18.263Z,94826.19
2018-02-13T17:25:46.247Z,94823.36
2018-02-13T17:28:15.266Z,94831.16
2018-02-13T17:30:43.202Z,94827.97
2018-02-13T17:33:11.162Z,94826.25
2018-02-13T17:35:39.166Z,94824.32
2018-02-13T17:38:07.203Z,94816.72
2018-02-13T17:40:35.195Z,94809.66
2018-02-13T17:43:03.847Z,94811.08
2018-02-13T17:45:31.759Z,94806.02
2018-02-13T17:48:00.160Z,94804.89
2018-02-13T17:50:28.092Z,94800.12
2018-02-13T17:52:56.058Z,94800.28
2018-02-13T17:55:24.003Z,94803.73
2018-02-13T17:57:51.974Z,94801.05
2018-02-13T18:00:19.921Z,94797.13
2018-02-13T18:02:47.937Z,94789.34
2018-02-13T18:05:15.953Z,94792.56
2018-02-13T18:07:43.958Z,94789.11
2018-02-13T18:10:11.962Z,94693.52
2018-02-13T18:12:40.014Z,94791.98
2018-02-13T18:15:07.998Z,94786.03
2018-02-13T18:17:35.988Z,94792.16
2018-02-13T18:20:04.376Z,94783.58
2018-02-13T18:22:32.302Z,94786.28
2018-02-13T18:25:00.338Z,94785.44
2018-02-13T18:27:28.323Z,94773.80
2018-02-13T18:29:56.338Z,94784.88
2018-02-13T18:32:24.411Z,94782.13
2018-02-13T18:34:52.401Z,94787.30
2018-02-13T18:37:20.517Z,94796.45
2018-02-13T18:39:48.542Z,94788.06
2018-02-13T18:42:16.445Z,94787.02
2018-02-13T18:44:44.425Z,94784.79
2018-02-13T18:47:12.398Z,94784.55
2018-02-13T18:49:40.359Z,94771.68
2018-02-13T18:54:36.141Z,94773.94
2018-02-13T18:57:04.137Z,94778.65
2018-02-13T18:59:32.094Z,94779.87
2018-02-13T19:02:00.113Z,94776.02
2018-02-13T19:04:28.145Z,94772.02
2018-02-13T19:06:56.102Z,94770.01
2018-02-13T19:09:24.016Z,94761.82
2018-02-13T19:11:51.982Z,94762.27
2018-02-13T19:14:20.021Z,94767.76
2018-02-13T19:19:15.943Z,94752.91
2018-02-13T19:21:44.895Z,94745.81
2018-02-13T19:24:12.909Z,94749.91
2018-02-13T19:26:40.907Z,94758.88
2018-02-13T19:29:08.832Z,94770.05
2018-02-13T19:31:36.787Z,94762.10
2018-02-13T19:34:04.694Z,94754.64
2018-02-13T19:36:32.706Z,94748.16
2018-02-13T19:39:00.662Z,94736.28
2018-02-13T19:41:28.667Z,94740.47
2018-02-13T19:43:56.682Z,94742.43
2018-02-13T19:46:24.703Z,94733.91
2018-02-13T19:48:52.723Z,94723.09
2018-02-13T19:51:20.690Z,94723.75
2018-02-13T19:53:48.719Z,94721.46
2018-02-13T19:56:16.679Z,94728.86
2018-02-13T19:58:44.715Z,94723.32
2018-02-13T20:01:12.707Z,94706.75
2018-02-13T20:03:40.709Z,94699.55
2018-02-13T20:06:08.662Z,94707.75
2018-02-13T20:08:36.602Z,94693.27
2018-02-13T20:11:04.506Z,94708.30
2018-02-13T20:13:32.426Z,94706.69
2018-02-13T20:16:00.510Z,94692.38
2018-02-13T20:18:28.470Z,94693.95
2018-02-13T20:20:56.446Z,94680.78
2018-02-13T20:23:24.839Z,94677.64
2018-02-13T20:25:52.842Z,94673.16
2018-02-13T20:28:20.729Z,94681.75
2018-02-13T20:30:48.708Z,94663.16
2018-02-13T20:33:16.699Z,94665.43
2018-02-13T20:35:44.682Z,94649.34
2018-02-13T20:38:12.676Z,94644.47
2018-02-13T20:40:41.412Z,94645.91
2018-02-13T20:43:09.395Z,94639.20
2018-02-13T20:45:37.282Z,94649.21
2018-02-13T20:48:05.209Z,94640.39
2018-02-13T20:50:33.242Z,94636.55
2018-02-13T20:53:01.215Z,94631.28
2018-02-13T20:55:29.230Z,94632.85
2018-02-13T20:57:58.354Z,94636.11
2018-02-13T21:00:27.142Z,94628.08
2018-02-13T21:02:55.152Z,94629.70
2018-02-13T21:05:23.149Z,94627.70
2018-02-13T21:07:51.110Z,94622.84
2018-02-13T21:10:19.122Z,94627.28
2018-02-13T21:12:47.146Z,94629.54
2018-02-13T21:15:15.158Z,94617.73
2018-02-13T21:17:43.166Z,94616.80
2018-02-13T21:20:11.118Z,94624.00
2018-02-13T21:22:39.188Z,94619.82
2018-02-13T21:25:07.522Z,94609.30
2018-02-13T21:27:35.537Z,94599.27
2018-02-13T21:30:03.550Z,94595.61
2018-02-13T21:32:31.565Z,94594.92
2018-02-13T21:34:59.530Z,94579.81
2018-02-13T21:37:27.469Z,94577.39
2018-02-13T21:39:55.446Z,94575.69
2018-02-13T21:42:23.427Z,94570.69
2018-02-13T21:44:51.339Z,94569.33
2018-02-13T21:47:19.323Z,94566.72
2018-02-13T21:49:47.433Z,94563.73
2018-02-13T21:52:15.414Z,94561.36
2018-02-13T21:54:43.414Z,94559.37
2018-02-13T21:57:11.834Z,94544.37
2018-02-13T21:59:40.197Z,94536.80
2018-02-13T22:02:08.486Z,94525.11
2018-02-13T22:04:37.163Z,94521.86
2018-02-13T22:07:05.640Z,94527.55
2018-02-13T22:09:33.953Z,94522.03
2018-02-13T22:12:02.395Z,94514.23
2018-02-13T22:14:30.588Z,94509.86
2018-02-13T22:16:59.048Z,94497.34
2018-02-13T22:19:27.635Z,94487.06
2018-02-13T22:21:56.010Z,94485.80
2018-02-13T22:24:24.495Z,94480.80
2018-02-13T22:26:53.018Z,94480.12
2018-02-13T22:29:21.346Z,94474.47
2018-02-13T22:31:49.930Z,94475.44
2018-02-13T22:34:18.189Z,94466.73
2018-02-13T22:36:46.994Z,94456.25
2018-02-13T22:39:15.457Z,94451.53
2018-02-13T22:41:43.860Z,94445.20
2018-02-13T22:44:12.131Z,94427.39
2018-02-13T22:46:40.589Z,94422.48
2018-02-13T22:49:09.304Z,94427.55
2018-02-13T22:51:37.677Z,94423.36
2018-02-13T22:54:06.050Z,94426.83
2018-02-13T22:56:34.539Z,94421.05
2018-02-13T22:59:03.218Z,94412.93
2018-02-13T23:01:31.884Z,94412.32
2018-02-13T23:04:00.282Z,94398.09
2018-02-13T23:06:29.072Z,94399.03
2018-02-13T23:08:57.651Z,94396.52
2018-02-13T23:11:26.037Z,94385.03
2018-02-13T23:13:54.609Z,94378.44
2018-02-13T23:16:23.077Z,94375.81
2018-02-13T23:18:51.465Z,94369.42
2018-02-13T23:21:20.050Z,94368.52
2018-02-13T23:23:48.434Z,94373.63
2018-02-13T23:26:16.705Z,94361.22
2018-02-13T23:28:45.389Z,94348.86
2018-02-13T23:31:13.765Z,94356.98
2018-02-13T23:33:42.248Z,94356.70
2018-02-13T23:36:10.530Z,94354.88
2018-02-13T23:38:38.901Z,94347.31
2018-02-13T23:41:07.177Z,94356.64
2018-02-13T23:43:35.689Z,94349.79
2018-02-13T23:46:04.141Z,94348.97
2018-02-13T23:48:32.618Z,94341.28
2018-02-13T23:51:00.999Z,94338.63
2018-02-13T23:53:29.476Z,94343.55
2018-02-13T23:55:57.758Z,94298.99
2018-02-13T23:58:26.423Z,94319.48
